sensor_id;sensor_type;location;lat;lon;timestamp;P1;durP1;ratioP1;P2;durP2;ratioP2
18336;SDS011;9294;51.106;7.028;2022-11-23T00:01:14;1.58;;;1.48;;
18336;SDS011;9294;51.106;7.028;2022-11-23T00:03:41;1.60;;;1.50;;
18336;SDS011;9294;51.106;7.028;2022-11-23T00:06:09;1.25;;;1.25;;
18336;SDS011;9294;51.106;7.028;2022-11-23T00:08:36;1.30;;;1.30;;
18336;SDS011;9294;51.106;7.028;2022-11-23T00:11:03;1.45;;;1.45;;
18336;SDS011;9294;51.106;7.028;2022-11-23T00:13:30;1.27;;;1.27;;
18336;SDS011;9294;51.106;7.028;2022-11-23T00:15:59;1.42;;;1.35;;
18336;SDS011;9294;51.106;7.028;2022-11-23T00:18:26;1.83;;;1.73;;
18336;SDS011;9294;51.106;7.028;2022-11-23T00:20:53;1.45;;;1.35;;
18336;SDS011;9294;51.106;7.028;2022-11-23T00:23:21;1.50;;;1.40;;
18336;SDS011;9294;51.106;7.028;2022-11-23T00:25:48;1.70;;;1.40;;
18336;SDS011;9294;51.106;7.028;2022-11-23T00:28:15;1.50;;;1.40;;
18336;SDS011;9294;51.106;7.028;2022-11-23T00:30:46;1.48;;;1.38;;
18336;SDS011;9294;51.106;7.028;2022-11-23T00:33:14;1.48;;;1.42;;
18336;SDS011;9294;51.106;7.028;2022-11-23T00:35:41;1.35;;;1.25;;
18336;SDS011;9294;51.106;7.028;2022-11-23T00:38:08;1.40;;;1.30;;
18336;SDS011;9294;51.106;7.028;2022-11-23T00:40:36;1.10;;;1.10;;
18336;SDS011;9294;51.106;7.028;2022-11-23T00:43:03;1.33;;;1.23;;
18336;SDS011;9294;51.106;7.028;2022-11-23T00:45:31;1.27;;;1.20;;
18336;SDS011;9294;51.106;7.028;2022-11-23T00:47:58;1.83;;;1.73;;
18336;SDS011;9294;51.106;7.028;2022-11-23T00:50:25;1.30;;;1.20;;
18336;SDS011;9294;51.106;7.028;2022-11-23T00:52:52;2.25;;;1.75;;
18336;SDS011;9294;51.106;7.028;2022-11-23T00:55:19;1.55;;;1.40;;
18336;SDS011;9294;51.106;7.028;2022-11-23T00:57:47;1.60;;;1.13;;
18336;SDS011;9294;51.106;7.028;2022-11-23T01:00:15;1.42;;;1.42;;
18336;SDS011;9294;51.106;7.028;2022-11-23T01:02:42;1.08;;;1.08;;
18336;SDS011;9294;51.106;7.028;2022-11-23T01:05:09;1.75;;;1.30;;
18336;SDS011;9294;51.106;7.028;2022-11-23T01:07:36;1.63;;;1.40;;
18336;SDS011;9294;51.106;7.028;2022-11-23T01:10:04;1.45;;;1.15;;
18336;SDS011;9294;51.106;7.028;2022-11-23T01:12:32;1.60;;;1.50;;
18336;SDS011;9294;51.106;7.028;2022-11-23T01:15:00;1.60;;;1.50;;
18336;SDS011;9294;51.106;7.028;2022-11-23T01:17:27;1.10;;;1.02;;
18336;SDS011;9294;51.106;7.028;2022-11-23T01:19:54;1.40;;;1.30;;
18336;SDS011;9294;51.106;7.028;2022-11-23T01:22:21;1.17;;;1.10;;
18336;SDS011;9294;51.106;7.028;2022-11-23T01:24:49;1.17;;;1.17;;
18336;SDS011;9294;51.106;7.028;2022-11-23T01:27:16;1.85;;;1.48;;
18336;SDS011;9294;51.106;7.028;2022-11-23T01:29:43;1.33;;;1.23;;
18336;SDS011;9294;51.106;7.028;2022-11-23T01:32:11;1.52;;;1.42;;
18336;SDS011;9294;51.106;7.028;2022-11-23T01:34:38;1.40;;;1.30;;
18336;SDS011;9294;51.106;7.028;2022-11-23T01:37:05;1.15;;;1.13;;
18336;SDS011;9294;51.106;7.028;2022-11-23T01:39:32;0.93;;;0.93;;
18336;SDS011;9294;51.106;7.028;2022-11-23T01:42:00;1.40;;;1.38;;
18336;SDS011;9294;51.106;7.028;2022-11-23T01:44:30;1.50;;;1.40;;
18336;SDS011;9294;51.106;7.028;2022-11-23T01:46:58;1.20;;;1.08;;
18336;SDS011;9294;51.106;7.028;2022-11-23T01:49:27;1.45;;;1.38;;
18336;SDS011;9294;51.106;7.028;2022-11-23T01:51:57;1.20;;;1.10;;
18336;SDS011;9294;51.106;7.028;2022-11-23T01:54:26;2.05;;;1.38;;
18336;SDS011;9294;51.106;7.028;2022-11-23T01:56:54;1.20;;;1.20;;
18336;SDS011;9294;51.106;7.028;2022-11-23T01:59:23;1.30;;;1.25;;
18336;SDS011;9294;51.106;7.028;2022-11-23T02:01:51;1.20;;;1.20;;
18336;SDS011;9294;51.106;7.028;2022-11-23T02:04:20;1.50;;;1.40;;
18336;SDS011;9294;51.106;7.028;2022-11-23T02:06:50;1.10;;;1.08;;
18336;SDS011;9294;51.106;7.028;2022-11-23T02:09:18;1.30;;;1.30;;
18336;SDS011;9294;51.106;7.028;2022-11-23T02:11:45;1.17;;;1.17;;
18336;SDS011;9294;51.106;7.028;2022-11-23T02:14:12;1.08;;;1.05;;
18336;SDS011;9294;51.106;7.028;2022-11-23T02:16:40;1.08;;;1.08;;
18336;SDS011;9294;51.106;7.028;2022-11-23T02:19:07;1.45;;;1.42;;
18336;SDS011;9294;51.106;7.028;2022-11-23T02:21:36;1.20;;;1.17;;
18336;SDS011;9294;51.106;7.028;2022-11-23T02:24:06;1.17;;;1.08;;
18336;SDS011;9294;51.106;7.028;2022-11-23T02:26:38;1.20;;;1.13;;
18336;SDS011;9294;51.106;7.028;2022-11-23T02:29:06;0.90;;;0.90;;
18336;SDS011;9294;51.106;7.028;2022-11-23T02:31:35;1.00;;;1.00;;
18336;SDS011;9294;51.106;7.028;2022-11-23T02:34:02;1.23;;;1.23;;
18336;SDS011;9294;51.106;7.028;2022-11-23T02:36:36;1.08;;;0.93;;
18336;SDS011;9294;51.106;7.028;2022-11-23T02:39:06;1.23;;;1.23;;
18336;SDS011;9294;51.106;7.028;2022-11-23T02:41:35;1.08;;;1.00;;
18336;SDS011;9294;51.106;7.028;2022-11-23T02:44:03;1.33;;;1.10;;
18336;SDS011;9294;51.106;7.028;2022-11-23T02:46:33;0.95;;;0.95;;
18336;SDS011;9294;51.106;7.028;2022-11-23T02:49:00;1.00;;;1.00;;
18336;SDS011;9294;51.106;7.028;2022-11-23T02:51:27;1.25;;;1.25;;
18336;SDS011;9294;51.106;7.028;2022-11-23T02:53:54;1.10;;;1.10;;
18336;SDS011;9294;51.106;7.028;2022-11-23T02:56:22;1.52;;;1.30;;
18336;SDS011;9294;51.106;7.028;2022-11-23T02:58:49;1.27;;;1.27;;
18336;SDS011;9294;51.106;7.028;2022-11-23T03:01:17;1.05;;;1.05;;
18336;SDS011;9294;51.106;7.028;2022-11-23T03:03:44;1.67;;;1.30;;
18336;SDS011;9294;51.106;7.028;2022-11-23T03:06:11;1.75;;;1.50;;
18336;SDS011;9294;51.106;7.028;2022-11-23T03:08:38;1.45;;;1.00;;
18336;SDS011;9294;51.106;7.028;2022-11-23T03:11:05;0.85;;;0.85;;
18336;SDS011;9294;51.106;7.028;2022-11-23T03:13:32;0.75;;;0.75;;
18336;SDS011;9294;51.106;7.028;2022-11-23T03:15:59;1.50;;;1.20;;
18336;SDS011;9294;51.106;7.028;2022-11-23T03:18:28;1.50;;;1.15;;
18336;SDS011;9294;51.106;7.028;2022-11-23T03:20:59;1.13;;;1.00;;
18336;SDS011;9294;51.106;7.028;2022-11-23T03:23:27;1.05;;;1.02;;
18336;SDS011;9294;51.106;7.028;2022-11-23T03:25:54;1.00;;;1.00;;
18336;SDS011;9294;51.106;7.028;2022-11-23T03:28:21;0.90;;;0.90;;
18336;SDS011;9294;51.106;7.028;2022-11-23T03:30:48;1.38;;;1.30;;
18336;SDS011;9294;51.106;7.028;2022-11-23T03:33:16;0.95;;;0.95;;
18336;SDS011;9294;51.106;7.028;2022-11-23T03:35:44;1.08;;;0.98;;
18336;SDS011;9294;51.106;7.028;2022-11-23T03:38:11;0.70;;;0.70;;
18336;SDS011;9294;51.106;7.028;2022-11-23T03:40:38;1.10;;;1.10;;
18336;SDS011;9294;51.106;7.028;2022-11-23T03:43:05;1.40;;;1.30;;
18336;SDS011;9294;51.106;7.028;2022-11-23T03:45:32;1.40;;;1.30;;
18336;SDS011;9294;51.106;7.028;2022-11-23T03:48:00;0.70;;;0.70;;
18336;SDS011;9294;51.106;7.028;2022-11-23T03:50:27;0.90;;;0.90;;
18336;SDS011;9294;51.106;7.028;2022-11-23T03:52:56;1.20;;;1.10;;
18336;SDS011;9294;51.106;7.028;2022-11-23T03:55:23;1.15;;;1.15;;
18336;SDS011;9294;51.106;7.028;2022-11-23T03:57:50;1.00;;;1.00;;
18336;SDS011;9294;51.106;7.028;2022-11-23T04:00:19;1.08;;;0.98;;
18336;SDS011;9294;51.106;7.028;2022-11-23T04:02:46;1.05;;;1.05;;
18336;SDS011;9294;51.106;7.028;2022-11-23T04:05:13;1.25;;;1.15;;
18336;SDS011;9294;51.106;7.028;2022-11-23T04:07:40;1.00;;;0.85;;
18336;SDS011;9294;51.106;7.028;2022-11-23T04:10:09;1.38;;;1.15;;
18336;SDS011;9294;51.106;7.028;2022-11-23T04:12:36;0.90;;;0.90;;
18336;SDS011;9294;51.106;7.028;2022-11-23T04:15:03;0.90;;;0.90;;
18336;SDS011;9294;51.106;7.028;2022-11-23T04:17:30;1.17;;;1.00;;
18336;SDS011;9294;51.106;7.028;2022-11-23T04:19:57;1.20;;;1.15;;
18336;SDS011;9294;51.106;7.028;2022-11-23T04:22:24;1.48;;;1.08;;
18336;SDS011;9294;51.106;7.028;2022-11-23T04:24:51;0.80;;;0.80;;
18336;SDS011;9294;51.106;7.028;2022-11-23T04:27:20;1.17;;;1.10;;
18336;SDS011;9294;51.106;7.028;2022-11-23T04:29:47;0.60;;;0.60;;
18336;SDS011;9294;51.106;7.028;2022-11-23T04:32:14;1.10;;;1.00;;
18336;SDS011;9294;51.106;7.028;2022-11-23T04:34:41;0.90;;;0.90;;
18336;SDS011;9294;51.106;7.028;2022-11-23T04:37:08;0.98;;;0.98;;
18336;SDS011;9294;51.106;7.028;2022-11-23T04:39:35;0.77;;;0.77;;
18336;SDS011;9294;51.106;7.028;2022-11-23T04:42:02;0.90;;;0.90;;
18336;SDS011;9294;51.106;7.028;2022-11-23T04:44:31;1.02;;;1.02;;
18336;SDS011;9294;51.106;7.028;2022-11-23T04:46:58;1.17;;;1.10;;
18336;SDS011;9294;51.106;7.028;2022-11-23T04:49:25;1.00;;;1.00;;
18336;SDS011;9294;51.106;7.028;2022-11-23T04:51:52;0.73;;;0.73;;
18336;SDS011;9294;51.106;7.028;2022-11-23T04:54:19;1.17;;;1.00;;
18336;SDS011;9294;51.106;7.028;2022-11-23T04:56:46;1.10;;;1.10;;
18336;SDS011;9294;51.106;7.028;2022-11-23T04:59:14;1.15;;;1.15;;
18336;SDS011;9294;51.106;7.028;2022-11-23T05:01:42;1.13;;;0.90;;
18336;SDS011;9294;51.106;7.028;2022-11-23T05:04:09;1.00;;;1.00;;
18336;SDS011;9294;51.106;7.028;2022-11-23T05:06:36;1.00;;;1.00;;
18336;SDS011;9294;51.106;7.028;2022-11-23T05:09:03;1.17;;;1.08;;
18336;SDS011;9294;51.106;7.028;2022-11-23T05:11:30;0.70;;;0.70;;
18336;SDS011;9294;51.106;7.028;2022-11-23T05:13:57;0.60;;;0.60;;
18336;SDS011;9294;51.106;7.028;2022-11-23T05:16:24;0.73;;;0.73;;
18336;SDS011;9294;51.106;7.028;2022-11-23T05:18:53;0.80;;;0.80;;
18336;SDS011;9294;51.106;7.028;2022-11-23T05:21:20;0.93;;;0.93;;
18336;SDS011;9294;51.106;7.028;2022-11-23T05:23:47;0.80;;;0.80;;
18336;SDS011;9294;51.106;7.028;2022-11-23T05:26:14;0.93;;;0.90;;
18336;SDS011;9294;51.106;7.028;2022-11-23T05:28:41;0.85;;;0.85;;
18336;SDS011;9294;51.106;7.028;2022-11-23T05:31:08;0.70;;;0.70;;
18336;SDS011;9294;51.106;7.028;2022-11-23T05:33:35;0.82;;;0.82;;
18336;SDS011;9294;51.106;7.028;2022-11-23T05:36:04;1.00;;;1.00;;
18336;SDS011;9294;51.106;7.028;2022-11-23T05:38:31;0.77;;;0.77;;
18336;SDS011;9294;51.106;7.028;2022-11-23T05:40:58;0.80;;;0.80;;
18336;SDS011;9294;51.106;7.028;2022-11-23T05:43:25;1.17;;;1.13;;
18336;SDS011;9294;51.106;7.028;2022-11-23T05:45:53;0.98;;;0.98;;
18336;SDS011;9294;51.106;7.028;2022-11-23T05:48:20;0.77;;;0.77;;
18336;SDS011;9294;51.106;7.028;2022-11-23T05:50:48;1.02;;;1.00;;
18336;SDS011;9294;51.106;7.028;2022-11-23T05:53:17;1.08;;;0.90;;
18336;SDS011;9294;51.106;7.028;2022-11-23T05:55:44;0.80;;;0.80;;
18336;SDS011;9294;51.106;7.028;2022-11-23T05:58:11;0.88;;;0.88;;
18336;SDS011;9294;51.106;7.028;2022-11-23T06:00:38;0.85;;;0.85;;
18336;SDS011;9294;51.106;7.028;2022-11-23T06:03:05;4.03;;;0.70;;
18336;SDS011;9294;51.106;7.028;2022-11-23T06:05:32;0.63;;;0.63;;
18336;SDS011;9294;51.106;7.028;2022-11-23T06:07:59;0.85;;;0.85;;
18336;SDS011;9294;51.106;7.028;2022-11-23T06:10:28;1.05;;;0.90;;
18336;SDS011;9294;51.106;7.028;2022-11-23T06:13:00;0.90;;;0.90;;
18336;SDS011;9294;51.106;7.028;2022-11-23T06:15:27;0.73;;;0.73;;
18336;SDS011;9294;51.106;7.028;2022-11-23T06:17:57;0.70;;;0.70;;
18336;SDS011;9294;51.106;7.028;2022-11-23T06:20:24;0.65;;;0.65;;
18336;SDS011;9294;51.106;7.028;2022-11-23T06:22:52;0.70;;;0.70;;
18336;SDS011;9294;51.106;7.028;2022-11-23T06:25:19;0.77;;;0.77;;
18336;SDS011;9294;51.106;7.028;2022-11-23T06:27:52;0.80;;;0.80;;
18336;SDS011;9294;51.106;7.028;2022-11-23T06:30:19;0.70;;;0.70;;
18336;SDS011;9294;51.106;7.028;2022-11-23T06:32:46;0.73;;;0.73;;
18336;SDS011;9294;51.106;7.028;2022-11-23T06:35:13;0.80;;;0.80;;
18336;SDS011;9294;51.106;7.028;2022-11-23T06:37:41;0.80;;;0.80;;
18336;SDS011;9294;51.106;7.028;2022-11-23T06:40:08;1.00;;;1.00;;
18336;SDS011;9294;51.106;7.028;2022-11-23T06:42:36;0.90;;;0.85;;
18336;SDS011;9294;51.106;7.028;2022-11-23T06:45:05;0.90;;;0.90;;
18336;SDS011;9294;51.106;7.028;2022-11-23T06:47:32;5.72;;;1.58;;
18336;SDS011;9294;51.106;7.028;2022-11-23T06:49:59;5.63;;;1.30;;
18336;SDS011;9294;51.106;7.028;2022-11-23T06:52:26;4.47;;;0.75;;
18336;SDS011;9294;51.106;7.028;2022-11-23T06:54:53;2.17;;;1.10;;
18336;SDS011;9294;51.106;7.028;2022-11-23T06:57:20;3.97;;;1.10;;
18336;SDS011;9294;51.106;7.028;2022-11-23T06:59:48;3.15;;;1.50;;
18336;SDS011;9294;51.106;7.028;2022-11-23T07:02:16;3.28;;;1.30;;
18336;SDS011;9294;51.106;7.028;2022-11-23T07:04:43;6.47;;;1.30;;
18336;SDS011;9294;51.106;7.028;2022-11-23T07:07:10;4.35;;;1.40;;
18336;SDS011;9294;51.106;7.028;2022-11-23T07:09:37;5.20;;;1.35;;
18336;SDS011;9294;51.106;7.028;2022-11-23T07:12:05;3.85;;;1.05;;
18336;SDS011;9294;51.106;7.028;2022-11-23T07:14:32;1.48;;;1.05;;
18336;SDS011;9294;51.106;7.028;2022-11-23T07:16:59;4.07;;;1.38;;
18336;SDS011;9294;51.106;7.028;2022-11-23T07:19:27;1.08;;;1.08;;
18336;SDS011;9294;51.106;7.028;2022-11-23T07:21:54;1.13;;;1.02;;
18336;SDS011;9294;51.106;7.028;2022-11-23T07:24:21;1.77;;;1.20;;
18336;SDS011;9294;51.106;7.028;2022-11-23T07:26:48;1.38;;;0.98;;
18336;SDS011;9294;51.106;7.028;2022-11-23T07:29:16;1.25;;;1.15;;
18336;SDS011;9294;51.106;7.028;2022-11-23T07:31:46;1.10;;;0.60;;
18336;SDS011;9294;51.106;7.028;2022-11-23T07:34:13;3.00;;;0.85;;
18336;SDS011;9294;51.106;7.028;2022-11-23T07:36:41;0.88;;;0.85;;
18336;SDS011;9294;51.106;7.028;2022-11-23T07:39:09;0.88;;;0.88;;
18336;SDS011;9294;51.106;7.028;2022-11-23T07:41:37;1.35;;;1.20;;
18336;SDS011;9294;51.106;7.028;2022-11-23T07:44:04;4.28;;;1.05;;
18336;SDS011;9294;51.106;7.028;2022-11-23T07:46:31;1.58;;;0.93;;
18336;SDS011;9294;51.106;7.028;2022-11-23T07:48:58;0.90;;;0.90;;
18336;SDS011;9294;51.106;7.028;2022-11-23T07:51:26;1.38;;;1.25;;
18336;SDS011;9294;51.106;7.028;2022-11-23T07:53:54;3.03;;;0.93;;
18336;SDS011;9294;51.106;7.028;2022-11-23T07:56:22;6.60;;;1.33;;
18336;SDS011;9294;51.106;7.028;2022-11-23T07:58:49;13.80;;;2.00;;
18336;SDS011;9294;51.106;7.028;2022-11-23T08:01:16;2.30;;;1.10;;
18336;SDS011;9294;51.106;7.028;2022-11-23T08:03:43;3.90;;;1.40;;
18336;SDS011;9294;51.106;7.028;2022-11-23T08:06:11;1.33;;;0.85;;
18336;SDS011;9294;51.106;7.028;2022-11-23T08:08:38;4.60;;;1.60;;
18336;SDS011;9294;51.106;7.028;2022-11-23T08:11:08;4.57;;;1.45;;
18336;SDS011;9294;51.106;7.028;2022-11-23T08:13:38;1.75;;;0.90;;
18336;SDS011;9294;51.106;7.028;2022-11-23T08:16:06;2.53;;;0.93;;
18336;SDS011;9294;51.106;7.028;2022-11-23T08:18:33;2.80;;;1.38;;
18336;SDS011;9294;51.106;7.028;2022-11-23T08:21:00;3.35;;;1.08;;
18336;SDS011;9294;51.106;7.028;2022-11-23T08:23:27;3.08;;;1.25;;
18336;SDS011;9294;51.106;7.028;2022-11-23T08:25:54;2.22;;;1.25;;
18336;SDS011;9294;51.106;7.028;2022-11-23T08:28:23;3.20;;;1.35;;
18336;SDS011;9294;51.106;7.028;2022-11-23T08:30:50;1.30;;;1.13;;
18336;SDS011;9294;51.106;7.028;2022-11-23T08:33:17;14.57;;;2.70;;
18336;SDS011;9294;51.106;7.028;2022-11-23T08:35:44;7.22;;;1.50;;
18336;SDS011;9294;51.106;7.028;2022-11-23T08:38:11;3.90;;;0.80;;
18336;SDS011;9294;51.106;7.028;2022-11-23T08:40:38;2.50;;;1.33;;
18336;SDS011;9294;51.106;7.028;2022-11-23T08:43:05;3.50;;;1.73;;
18336;SDS011;9294;51.106;7.028;2022-11-23T08:45:34;6.53;;;1.65;;
18336;SDS011;9294;51.106;7.028;2022-11-23T08:48:01;4.13;;;1.58;;
18336;SDS011;9294;51.106;7.028;2022-11-23T08:50:29;4.50;;;1.35;;
18336;SDS011;9294;51.106;7.028;2022-11-23T08:52:58;2.33;;;1.33;;
18336;SDS011;9294;51.106;7.028;2022-11-23T08:55:26;2.17;;;1.33;;
18336;SDS011;9294;51.106;7.028;2022-11-23T08:57:53;2.72;;;1.17;;
18336;SDS011;9294;51.106;7.028;2022-11-23T09:00:21;6.65;;;1.27;;
18336;SDS011;9294;51.106;7.028;2022-11-23T09:02:49;1.98;;;1.10;;
18336;SDS011;9294;51.106;7.028;2022-11-23T09:05:16;2.05;;;1.50;;
18336;SDS011;9294;51.106;7.028;2022-11-23T09:07:43;2.85;;;1.08;;
18336;SDS011;9294;51.106;7.028;2022-11-23T09:10:10;8.07;;;1.85;;
18336;SDS011;9294;51.106;7.028;2022-11-23T09:12:38;7.95;;;2.25;;
18336;SDS011;9294;51.106;7.028;2022-11-23T09:15:05;4.00;;;1.35;;
18336;SDS011;9294;51.106;7.028;2022-11-23T09:17:32;3.50;;;1.50;;
18336;SDS011;9294;51.106;7.028;2022-11-23T09:20:01;2.60;;;1.13;;
18336;SDS011;9294;51.106;7.028;2022-11-23T09:22:28;10.52;;;1.95;;
18336;SDS011;9294;51.106;7.028;2022-11-23T09:24:55;5.80;;;1.40;;
18336;SDS011;9294;51.106;7.028;2022-11-23T09:27:22;8.68;;;1.70;;
18336;SDS011;9294;51.106;7.028;2022-11-23T09:29:49;4.90;;;1.25;;
18336;SDS011;9294;51.106;7.028;2022-11-23T09:32:16;4.95;;;1.88;;
18336;SDS011;9294;51.106;7.028;2022-11-23T09:34:43;3.88;;;1.60;;
18336;SDS011;9294;51.106;7.028;2022-11-23T09:37:12;4.03;;;1.77;;
18336;SDS011;9294;51.106;7.028;2022-11-23T09:39:39;4.40;;;1.67;;
18336;SDS011;9294;51.106;7.028;2022-11-23T09:42:19;5.35;;;2.22;;
18336;SDS011;9294;51.106;7.028;2022-11-23T09:44:59;4.30;;;1.55;;
18336;SDS011;9294;51.106;7.028;2022-11-23T09:47:35;5.20;;;1.75;;
18336;SDS011;9294;51.106;7.028;2022-11-23T09:50:09;4.35;;;1.63;;
18336;SDS011;9294;51.106;7.028;2022-11-23T09:52:41;6.30;;;2.20;;
18336;SDS011;9294;51.106;7.028;2022-11-23T09:55:12;4.15;;;1.20;;
18336;SDS011;9294;51.106;7.028;2022-11-23T09:57:41;5.90;;;1.63;;
18336;SDS011;9294;51.106;7.028;2022-11-23T10:00:14;4.22;;;1.77;;
18336;SDS011;9294;51.106;7.028;2022-11-23T10:02:42;6.15;;;1.80;;
18336;SDS011;9294;51.106;7.028;2022-11-23T10:05:09;4.80;;;2.17;;
18336;SDS011;9294;51.106;7.028;2022-11-23T10:07:42;2.15;;;1.55;;
18336;SDS011;9294;51.106;7.028;2022-11-23T10:10:16;3.45;;;1.35;;
18336;SDS011;9294;51.106;7.028;2022-11-23T10:12:45;2.47;;;1.23;;
18336;SDS011;9294;51.106;7.028;2022-11-23T10:15:17;2.90;;;1.35;;
18336;SDS011;9294;51.106;7.028;2022-11-23T10:17:50;5.82;;;1.30;;
18336;SDS011;9294;51.106;7.028;2022-11-23T10:20:27;3.92;;;1.58;;
18336;SDS011;9294;51.106;7.028;2022-11-23T10:23:01;1.98;;;1.25;;
18336;SDS011;9294;51.106;7.028;2022-11-23T10:25:31;6.00;;;2.22;;
18336;SDS011;9294;51.106;7.028;2022-11-23T10:28:01;4.80;;;2.00;;
18336;SDS011;9294;51.106;7.028;2022-11-23T10:30:32;4.05;;;1.70;;
18336;SDS011;9294;51.106;7.028;2022-11-23T10:33:00;5.68;;;1.77;;
18336;SDS011;9294;51.106;7.028;2022-11-23T10:35:29;4.40;;;1.80;;
18336;SDS011;9294;51.106;7.028;2022-11-23T10:38:01;4.78;;;1.48;;
18336;SDS011;9294;51.106;7.028;2022-11-23T10:40:34;2.85;;;1.20;;
18336;SDS011;9294;51.106;7.028;2022-11-23T10:43:06;5.55;;;1.45;;
18336;SDS011;9294;51.106;7.028;2022-11-23T10:45:35;3.22;;;1.42;;
18336;SDS011;9294;51.106;7.028;2022-11-23T10:48:03;4.53;;;1.40;;
18336;SDS011;9294;51.106;7.028;2022-11-23T10:50:31;4.28;;;1.90;;
18336;SDS011;9294;51.106;7.028;2022-11-23T10:53:11;13.23;;;2.70;;
18336;SDS011;9294;51.106;7.028;2022-11-23T10:55:45;7.88;;;2.53;;
18336;SDS011;9294;51.106;7.028;2022-11-23T10:58:22;16.33;;;3.28;;
18336;SDS011;9294;51.106;7.028;2022-11-23T11:00:57;5.00;;;3.30;;
18336;SDS011;9294;51.106;7.028;2022-11-23T11:03:24;10.73;;;3.22;;
18336;SDS011;9294;51.106;7.028;2022-11-23T11:05:51;7.60;;;2.20;;
18336;SDS011;9294;51.106;7.028;2022-11-23T11:08:20;13.93;;;3.15;;
18336;SDS011;9294;51.106;7.028;2022-11-23T11:10:47;5.47;;;2.63;;
18336;SDS011;9294;51.106;7.028;2022-11-23T11:13:21;4.47;;;2.00;;
18336;SDS011;9294;51.106;7.028;2022-11-23T11:15:53;4.60;;;1.88;;
18336;SDS011;9294;51.106;7.028;2022-11-23T11:18:20;3.92;;;1.90;;
18336;SDS011;9294;51.106;7.028;2022-11-23T11:20:48;7.65;;;2.20;;
18336;SDS011;9294;51.106;7.028;2022-11-23T11:23:22;4.13;;;2.15;;
18336;SDS011;9294;51.106;7.028;2022-11-23T11:25:51;4.82;;;1.88;;
18336;SDS011;9294;51.106;7.028;2022-11-23T11:28:28;6.13;;;2.20;;
18336;SDS011;9294;51.106;7.028;2022-11-23T11:31:02;6.03;;;1.70;;
18336;SDS011;9294;51.106;7.028;2022-11-23T11:33:35;5.40;;;1.90;;
18336;SDS011;9294;51.106;7.028;2022-11-23T11:36:04;3.88;;;2.00;;
18336;SDS011;9294;51.106;7.028;2022-11-23T11:38:33;3.58;;;1.48;;
18336;SDS011;9294;51.106;7.028;2022-11-23T11:41:04;3.20;;;1.80;;
18336;SDS011;9294;51.106;7.028;2022-11-23T11:43:33;4.55;;;2.08;;
18336;SDS011;9294;51.106;7.028;2022-11-23T11:46:03;3.75;;;1.75;;
18336;SDS011;9294;51.106;7.028;2022-11-23T11:48:32;6.85;;;1.48;;
18336;SDS011;9294;51.106;7.028;2022-11-23T11:51:01;7.03;;;1.83;;
18336;SDS011;9294;51.106;7.028;2022-11-23T11:53:30;8.80;;;1.70;;
18336;SDS011;9294;51.106;7.028;2022-11-23T11:56:01;5.90;;;2.45;;
18336;SDS011;9294;51.106;7.028;2022-11-23T11:58:30;7.10;;;1.58;;
18336;SDS011;9294;51.106;7.028;2022-11-23T12:01:00;2.75;;;1.45;;
18336;SDS011;9294;51.106;7.028;2022-11-23T12:03:33;5.93;;;2.33;;
18336;SDS011;9294;51.106;7.028;2022-11-23T12:06:04;3.40;;;1.65;;
18336;SDS011;9294;51.106;7.028;2022-11-23T12:08:34;2.45;;;1.27;;
18336;SDS011;9294;51.106;7.028;2022-11-23T12:11:05;4.45;;;1.38;;
18336;SDS011;9294;51.106;7.028;2022-11-23T12:13:32;3.28;;;1.60;;
18336;SDS011;9294;51.106;7.028;2022-11-23T12:16:02;5.22;;;1.77;;
18336;SDS011;9294;51.106;7.028;2022-11-23T12:21:32;4.75;;;1.30;;
18336;SDS011;9294;51.106;7.028;2022-11-23T12:24:04;4.13;;;1.38;;
18336;SDS011;9294;51.106;7.028;2022-11-23T12:26:40;3.85;;;1.75;;
18336;SDS011;9294;51.106;7.028;2022-11-23T12:29:15;1.40;;;1.27;;
18336;SDS011;9294;51.106;7.028;2022-11-23T12:31:52;3.67;;;1.50;;
18336;SDS011;9294;51.106;7.028;2022-11-23T12:34:26;2.75;;;1.30;;
18336;SDS011;9294;51.106;7.028;2022-11-23T12:37:04;4.57;;;2.00;;
18336;SDS011;9294;51.106;7.028;2022-11-23T12:39:42;1.85;;;1.35;;
18336;SDS011;9294;51.106;7.028;2022-11-23T12:42:15;3.83;;;1.30;;
18336;SDS011;9294;51.106;7.028;2022-11-23T12:44:48;2.95;;;1.15;;
18336;SDS011;9294;51.106;7.028;2022-11-23T12:47:24;3.63;;;1.75;;
18336;SDS011;9294;51.106;7.028;2022-11-23T12:49:52;4.75;;;1.95;;
18336;SDS011;9294;51.106;7.028;2022-11-23T12:52:25;4.55;;;1.38;;
18336;SDS011;9294;51.106;7.028;2022-11-23T12:54:55;4.15;;;1.35;;
18336;SDS011;9294;51.106;7.028;2022-11-23T12:57:29;3.15;;;1.48;;
18336;SDS011;9294;51.106;7.028;2022-11-23T12:59:59;12.00;;;1.85;;
18336;SDS011;9294;51.106;7.028;2022-11-23T13:02:52;8.77;;;1.77;;
18336;SDS011;9294;51.106;7.028;2022-11-23T13:05:29;2.50;;;2.30;;
18336;SDS011;9294;51.106;7.028;2022-11-23T13:08:08;3.80;;;2.40;;
18336;SDS011;9294;51.106;7.028;2022-11-23T13:10:41;5.50;;;1.98;;
18336;SDS011;9294;51.106;7.028;2022-11-23T13:13:20;10.77;;;2.75;;
18336;SDS011;9294;51.106;7.028;2022-11-23T13:15:54;4.13;;;1.90;;
18336;SDS011;9294;51.106;7.028;2022-11-23T13:18:29;7.70;;;1.83;;
18336;SDS011;9294;51.106;7.028;2022-11-23T13:21:02;6.45;;;2.13;;
18336;SDS011;9294;51.106;7.028;2022-11-23T13:23:34;7.45;;;1.95;;
18336;SDS011;9294;51.106;7.028;2022-11-23T13:26:11;9.35;;;2.20;;
18336;SDS011;9294;51.106;7.028;2022-11-23T13:28:40;9.05;;;2.50;;
18336;SDS011;9294;51.106;7.028;2022-11-23T13:31:18;5.93;;;1.92;;
18336;SDS011;9294;51.106;7.028;2022-11-23T13:33:47;7.03;;;2.70;;
18336;SDS011;9294;51.106;7.028;2022-11-23T13:38:58;4.72;;;2.22;;
18336;SDS011;9294;51.106;7.028;2022-11-23T13:44:27;4.90;;;2.45;;
18336;SDS011;9294;51.106;7.028;2022-11-23T13:46:58;5.50;;;2.30;;
18336;SDS011;9294;51.106;7.028;2022-11-23T13:49:29;3.40;;;2.00;;
18336;SDS011;9294;51.106;7.028;2022-11-23T13:54:51;6.75;;;2.38;;
18336;SDS011;9294;51.106;7.028;2022-11-23T13:57:19;11.35;;;3.30;;
18336;SDS011;9294;51.106;7.028;2022-11-23T13:59:47;7.70;;;2.83;;
18336;SDS011;9294;51.106;7.028;2022-11-23T14:07:45;7.18;;;3.13;;
18336;SDS011;9294;51.106;7.028;2022-11-23T14:10:14;5.75;;;2.40;;
18336;SDS011;9294;51.106;7.028;2022-11-23T14:12:43;12.35;;;2.80;;
18336;SDS011;9294;51.106;7.028;2022-11-23T14:15:16;7.72;;;2.00;;
18336;SDS011;9294;51.106;7.028;2022-11-23T14:20:47;5.18;;;2.38;;
18336;SDS011;9294;51.106;7.028;2022-11-23T14:26:01;3.95;;;2.47;;
18336;SDS011;9294;51.106;7.028;2022-11-23T14:28:34;3.58;;;2.00;;
18336;SDS011;9294;51.106;7.028;2022-11-23T14:31:08;4.78;;;1.80;;
18336;SDS011;9294;51.106;7.028;2022-11-23T14:33:39;6.32;;;2.05;;
18336;SDS011;9294;51.106;7.028;2022-11-23T14:36:12;9.85;;;2.08;;
18336;SDS011;9294;51.106;7.028;2022-11-23T14:41:32;5.22;;;1.92;;
18336;SDS011;9294;51.106;7.028;2022-11-23T14:44:00;8.93;;;2.42;;
18336;SDS011;9294;51.106;7.028;2022-11-23T14:46:29;3.90;;;2.13;;
18336;SDS011;9294;51.106;7.028;2022-11-23T14:49:02;6.38;;;2.15;;
18336;SDS011;9294;51.106;7.028;2022-11-23T14:51:29;1.75;;;1.63;;
18336;SDS011;9294;51.106;7.028;2022-11-23T14:53:58;6.35;;;2.20;;
18336;SDS011;9294;51.106;7.028;2022-11-23T14:56:29;4.68;;;2.33;;
18336;SDS011;9294;51.106;7.028;2022-11-23T14:58:59;3.10;;;1.60;;
18336;SDS011;9294;51.106;7.028;2022-11-23T15:01:27;2.40;;;1.63;;
18336;SDS011;9294;51.106;7.028;2022-11-23T15:03:56;7.57;;;2.17;;
18336;SDS011;9294;51.106;7.028;2022-11-23T15:06:24;4.35;;;1.80;;
18336;SDS011;9294;51.106;7.028;2022-11-23T15:08:54;3.58;;;2.17;;
18336;SDS011;9294;51.106;7.028;2022-11-23T15:11:24;1.92;;;1.40;;
18336;SDS011;9294;51.106;7.028;2022-11-23T15:13:53;3.47;;;1.73;;
18336;SDS011;9294;51.106;7.028;2022-11-23T15:16:26;1.55;;;1.52;;
18336;SDS011;9294;51.106;7.028;2022-11-23T15:18:53;2.53;;;1.92;;
18336;SDS011;9294;51.106;7.028;2022-11-23T15:21:23;2.70;;;1.48;;
18336;SDS011;9294;51.106;7.028;2022-11-23T15:23:51;8.93;;;2.10;;
18336;SDS011;9294;51.106;7.028;2022-11-23T15:26:19;5.25;;;2.05;;
18336;SDS011;9294;51.106;7.028;2022-11-23T15:28:46;3.90;;;2.33;;
18336;SDS011;9294;51.106;7.028;2022-11-23T15:31:17;13.52;;;2.88;;
18336;SDS011;9294;51.106;7.028;2022-11-23T15:33:44;5.60;;;2.03;;
18336;SDS011;9294;51.106;7.028;2022-11-23T15:36:13;3.17;;;1.63;;